Time;durP1;ratioP1;P1;durP2;ratioP2;P2;SDS_P1;SDS_P2;PMS_P1;PMS_P2;Temp;Humidity;BMP_temperature;BMP_pressure;BME280_temperature;BME280_humidity;BME280_pressure;Samples;Min_cycle;Max_cycle;Signal;HPM_P1;HPM_P2
2021/05/21 00:00:51;;;;;;;2.03;1.70;;;;;;;13.04;80.66;100074.95;638395;222;25962;-76
2021/05/21 00:03:19;;;;;;;1.97;1.60;;;;;;;13.11;81.22;100083.45;639153;224;23918;-77
2021/05/21 00:05:47;;;;;;;3.13;1.60;;;;;;;12.86;80.96;100078.23;641797;220;23878;-78
2021/05/21 00:08:14;;;;;;;2.23;1.50;;;;;;;13.05;80.40;100073.16;638791;224;24889;-78
2021/05/21 00:10:43;;;;;;;1.47;1.37;;;;;;;12.91;81.29;100065.98;610526;233;23948;-78
2021/05/21 00:13:10;;;;;;;5.13;1.90;;;;;;;12.94;80.84;100062.55;640154;224;24906;-78
2021/05/21 00:15:39;;;;;;;1.80;1.60;;;;;;;13.02;80.85;100056.52;615714;233;24966;-77
2021/05/21 00:18:07;;;;;;;3.17;1.97;;;;;;;13.11;80.88;100050.81;615587;232;24992;-78
2021/05/21 00:20:35;;;;;;;4.40;1.73;;;;;;;12.91;81.53;100047.22;638509;223;23872;-78
2021/05/21 00:23:04;;;;;;;3.20;1.50;;;;;;;13.40;79.24;100037.23;633295;224;32669;-77
2021/05/21 00:25:31;;;;;;;1.93;1.70;;;;;;;13.04;80.97;100042.31;637812;224;23734;-78
2021/05/21 00:27:59;;;;;;;3.40;1.50;;;;;;;13.54;78.44;100036.05;632909;224;32787;-78
2021/05/21 00:30:27;;;;;;;1.80;1.60;;;;;;;12.98;80.84;100032.55;639362;224;23752;-77
2021/05/21 00:32:55;;;;;;;3.30;1.57;;;;;;;12.90;81.11;100035.15;639672;224;25116;-77
2021/05/21 00:35:23;;;;;;;2.60;2.00;;;;;;;12.87;80.96;100032.06;637177;223;23919;-77
2021/05/21 00:37:51;;;;;;;2.37;1.90;;;;;;;12.88;80.75;100029.28;638577;222;27026;-77
2021/05/21 00:40:21;;;;;;;2.73;1.70;;;;;;;12.82;81.90;100026.03;638487;224;25977;-77
2021/05/21 00:42:49;;;;;;;3.13;1.50;;;;;;;12.81;81.45;100020.49;639142;224;24909;-78
2021/05/21 00:45:17;;;;;;;4.10;1.50;;;;;;;12.74;81.55;100018.20;638249;224;23915;-77
2021/05/21 00:47:46;;;;;;;2.67;1.55;;;;;;;13.16;80.53;100010.64;634545;224;32664;-77
2021/05/21 00:50:14;;;;;;;2.60;1.57;;;;;;;12.66;81.50;100017.70;612861;234;23785;-78
2021/05/21 00:52:42;;;;;;;5.30;1.53;;;;;;;12.65;82.33;100015.25;639539;224;25218;-78
2021/05/21 00:55:11;;;;;;;1.67;1.50;;;;;;;12.72;81.69;100020.16;629505;228;24894;-78
2021/05/21 00:57:39;;;;;;;5.03;1.60;;;;;;;12.69;82.41;100017.88;638423;224;23935;-78
2021/05/21 01:00:08;;;;;;;1.67;1.57;;;;;;;12.62;82.69;100015.09;638311;224;23892;-78
2021/05/21 01:02:36;;;;;;;1.43;1.33;;;;;;;12.59;82.09;100006.30;639841;224;24984;-78
2021/05/21 01:05:05;;;;;;;2.53;1.60;;;;;;;13.11;80.57;99989.45;631747;221;32845;-77
2021/05/21 01:07:32;;;;;;;2.17;1.50;;;;;;;12.72;81.25;99993.58;637293;224;24857;-78
2021/05/21 01:10:00;;;;;;;2.77;1.50;;;;;;;12.58;81.49;99986.41;639474;224;23867;-78
2021/05/21 01:12:28;;;;;;;1.73;1.50;;;;;;;12.53;82.75;99983.94;640309;222;28031;-77
2021/05/21 01:14:56;;;;;;;3.40;1.90;;;;;;;12.45;82.71;99986.08;639356;224;24884;-77
2021/05/21 01:17:24;;;;;;;2.37;1.60;;;;;;;12.59;81.70;99980.20;640652;224;24894;-78
2021/05/21 01:19:52;;;;;;;1.63;1.53;;;;;;;12.42;82.61;99972.88;638500;224;23950;-77
2021/05/21 01:22:21;;;;;;;1.13;1.13;;;;;;;12.58;81.67;99972.55;639650;223;24894;-78
2021/05/21 01:24:49;;;;;;;7.13;1.70;;;;;;;12.54;82.07;99969.46;639039;221;23898;-77
2021/05/21 01:27:17;;;;;;;3.63;1.20;;;;;;;12.53;81.66;99961.31;637475;224;24908;-77
2021/05/21 01:29:45;;;;;;;2.57;1.60;;;;;;;12.64;81.67;99949.21;634074;224;24890;-78
2021/05/21 01:32:13;;;;;;;3.17;1.40;;;;;;;12.59;81.45;99954.12;638435;224;27029;-78
2021/05/21 01:34:41;;;;;;;1.30;1.20;;;;;;;12.60;81.34;99955.75;637245;224;23896;-77
2021/05/21 01:37:15;;;;;;;3.20;1.60;;;;;;;12.46;81.92;99944.18;638690;224;24151;-77
2021/05/21 01:39:43;;;;;;;1.63;1.40;;;;;;;12.53;81.00;99935.69;638863;224;24884;-78
2021/05/21 01:42:12;;;;;;;4.10;1.30;;;;;;;12.40;81.28;99930.50;637352;224;24891;-77
2021/05/21 01:44:40;;;;;;;1.70;1.37;;;;;;;12.64;80.65;99922.30;638239;224;24026;-77
2021/05/21 01:47:08;;;;;;;3.00;1.20;;;;;;;12.86;79.37;99915.59;632831;224;32810;-77
2021/05/21 01:49:36;;;;;;;2.20;1.23;;;;;;;12.58;80.63;99910.75;638426;224;24875;-77
2021/05/21 01:52:04;;;;;;;3.37;1.40;;;;;;;12.57;80.53;99912.22;637168;224;23919;-78
2021/05/21 01:54:32;;;;;;;1.30;1.20;;;;;;;12.49;81.52;99908.63;639561;220;24883;-77
2021/05/21 01:57:01;;;;;;;3.80;1.40;;;;;;;12.61;80.58;99901.28;638987;224;24853;-77
2021/05/21 01:59:28;;;;;;;3.50;1.23;;;;;;;12.66;80.47;99901.59;636909;224;24933;-77
2021/05/21 02:01:56;;;;;;;2.57;1.40;;;;;;;12.48;80.66;99900.48;639240;224;23882;-78
2021/05/21 02:04:30;;;;;;;3.53;1.60;;;;;;;12.45;81.13;99898.20;636914;224;24949;-77
2021/05/21 02:06:58;;;;;;;2.13;1.07;;;;;;;12.41;82.13;99890.89;639317;224;24871;-78
2021/05/21 02:09:25;;;;;;;2.40;1.20;;;;;;;12.19;82.74;99892.36;637500;224;24895;-78
2021/05/21 02:11:53;;;;;;;1.73;1.40;;;;;;;12.36;81.67;99887.45;638014;224;27013;-77
2021/05/21 02:14:21;;;;;;;1.97;1.43;;;;;;;12.40;82.17;99890.08;639390;220;23882;-78
2021/05/21 02:16:49;;;;;;;1.50;1.37;;;;;;;12.43;81.63;99893.66;637353;224;24895;-78
2021/05/21 02:19:17;;;;;;;3.73;1.37;;;;;;;12.36;81.32;99890.55;639502;224;23878;-78
2021/05/21 02:21:46;;;;;;;1.10;1.10;;;;;;;12.29;81.81;99882.58;638649;223;23961;-77
2021/05/21 02:24:13;;;;;;;4.80;1.20;;;;;;;12.32;81.54;99877.03;639534;221;24886;-78
2021/05/21 02:26:41;;;;;;;1.40;1.30;;;;;;;12.43;81.97;99874.09;638081;224;23930;-77
2021/05/21 02:29:09;;;;;;;1.50;1.40;;;;;;;12.51;81.73;99871.13;638005;224;23936;-78
2021/05/21 02:31:37;;;;;;;1.30;1.20;;;;;;;12.48;81.26;99868.36;639734;224;24983;-77
2021/05/21 02:34:05;;;;;;;1.90;1.30;;;;;;;12.85;80.20;99862.58;633171;223;32786;-77
2021/05/21 02:36:33;;;;;;;2.80;1.43;;;;;;;12.44;80.83;99860.06;640297;224;23730;-78
2021/05/21 02:39:01;;;;;;;1.67;1.30;;;;;;;12.83;80.52;99851.98;633113;224;32650;-78
2021/05/21 02:41:29;;;;;;;1.30;1.20;;;;;;;12.39;81.38;99844.11;637904;224;23788;-77
2021/05/21 02:43:57;;;;;;;1.40;1.30;;;;;;;12.33;81.42;99846.06;639203;223;26066;-78
2021/05/21 02:46:25;;;;;;;2.95;1.40;;;;;;;12.49;80.66;99846.02;632445;220;39304;-77
2021/05/21 02:48:53;;;;;;;1.70;1.25;;;;;;;12.64;80.26;99829.69;634442;224;32838;-78
2021/05/21 02:51:21;;;;;;;3.10;1.67;;;;;;;12.44;81.63;99843.60;639838;224;23030;-78
2021/05/21 02:53:49;;;;;;;2.50;1.32;;;;;;;12.70;80.71;99831.64;633089;224;43696;-78
2021/05/21 02:56:16;;;;;;;2.67;1.50;;;;;;;12.36;81.63;99828.77;638666;221;23870;-78
2021/05/21 02:58:44;;;;;;;1.92;1.50;;;;;;;12.72;80.37;99826.57;633180;224;32946;-77
2021/05/21 03:01:12;;;;;;;3.67;1.60;;;;;;;12.18;82.10;99825.55;637101;224;24881;-77
2021/05/21 03:03:40;;;;;;;3.70;1.63;;;;;;;12.02;83.60;99831.59;638769;224;24932;-77
2021/05/21 03:06:08;;;;;;;3.40;1.80;;;;;;;12.18;82.14;99824.25;611365;230;24937;-77
2021/05/21 03:08:36;;;;;;;2.30;1.53;;;;;;;12.00;83.44;99824.44;639521;224;24934;-78
2021/05/21 03:11:04;;;;;;;2.23;1.60;;;;;;;11.82;83.86;99827.21;612793;234;24978;-77
2021/05/21 03:13:32;;;;;;;1.93;1.60;;;;;;;12.02;83.52;99822.96;615339;233;23977;-78
2021/05/21 03:16:00;;;;;;;1.70;1.30;;;;;;;12.46;82.13;99806.42;622661;228;33062;-77
2021/05/21 03:18:28;;;;;;;3.70;1.80;;;;;;;12.05;83.39;99810.90;637425;224;25175;-78
2021/05/21 03:20:56;;;;;;;4.10;1.70;;;;;;;12.39;82.08;99803.69;632711;224;34166;-77
2021/05/21 03:23:24;;;;;;;1.50;1.30;;;;;;;12.05;83.29;99799.17;638343;224;25205;-77
2021/05/21 03:25:51;;;;;;;2.60;1.37;;;;;;;12.00;83.78;99810.59;637745;221;28063;-78
2021/05/21 03:28:19;;;;;;;4.00;2.30;;;;;;;11.99;83.92;99802.45;637005;224;23930;-77
2021/05/21 03:30:47;;;;;;;1.83;1.70;;;;;;;11.87;84.04;99798.86;638686;224;24879;-77
2021/05/21 03:33:15;;;;;;;2.00;1.50;;;;;;;11.93;83.69;99796.57;638545;224;24926;-77
2021/05/21 03:35:43;;;;;;;5.60;1.57;;;;;;;12.04;84.39;99794.45;640345;220;24889;-78
2021/05/21 03:38:11;;;;;;;3.00;1.60;;;;;;;11.98;84.06;99791.70;639467;224;24841;-77
2021/05/21 03:40:39;;;;;;;3.43;1.47;;;;;;;11.94;83.47;99793.80;640521;224;24907;-78
2021/05/21 03:43:07;;;;;;;3.50;1.30;;;;;;;11.98;83.62;99789.91;638099;224;24963;-77
2021/05/21 03:45:35;;;;;;;2.70;1.73;;;;;;;12.05;83.64;99787.44;637523;224;24884;-78
2021/05/21 03:48:03;;;;;;;1.40;1.30;;;;;;;12.00;83.48;99784.52;637705;224;24876;-78
2021/05/21 03:50:31;;;;;;;3.47;1.37;;;;;;;12.07;83.90;99775.86;639107;224;24864;-78
2021/05/21 03:52:59;;;;;;;2.63;1.47;;;;;;;12.07;83.80;99782.38;639632;224;24851;-78
2021/05/21 03:55:27;;;;;;;1.30;1.20;;;;;;;11.98;83.74;99772.16;638260;224;24903;-77
2021/05/21 03:57:56;;;;;;;2.43;1.33;;;;;;;12.08;82.96;99770.16;637978;224;24090;-79
2021/05/21 04:00:24;;;;;;;1.70;1.33;;;;;;;12.03;83.72;99766.75;639150;224;24861;-79
2021/05/21 04:02:53;;;;;;;4.67;1.80;;;;;;;12.10;83.54;99755.16;638305;224;24875;-79
2021/05/21 04:05:20;;;;;;;1.70;1.60;;;;;;;12.17;82.66;99752.23;636198;221;24877;-80
2021/05/21 04:07:48;;;;;;;1.67;1.50;;;;;;;12.22;83.65;99747.81;639182;224;23927;-79
2021/05/21 04:10:16;;;;;;;1.90;1.40;;;;;;;12.02;84.05;99753.89;638197;223;24867;-79
2021/05/21 04:12:44;;;;;;;3.80;1.77;;;;;;;11.98;84.19;99758.63;638388;224;24875;-79
2021/05/21 04:15:14;;;;;;;1.67;1.57;;;;;;;11.93;84.50;99760.09;637480;221;25233;-78
2021/05/21 04:17:42;;;;;;;2.20;1.10;;;;;;;11.83;84.05;99750.67;638815;224;24873;-77
2021/05/21 04:20:11;;;;;;;3.45;1.45;;;;;;;12.56;82.05;99740.53;633035;224;32934;-78
2021/05/21 04:22:39;;;;;;;3.20;1.50;;;;;;;12.25;83.37;99741.80;639053;224;22785;-78
2021/05/21 04:25:08;;;;;;;1.60;1.30;;;;;;;12.24;83.07;99742.74;639232;221;24898;-78
2021/05/21 04:27:36;;;;;;;1.47;1.23;;;;;;;12.26;83.48;99742.61;639299;224;24833;-78
2021/05/21 04:30:05;;;;;;;3.20;1.33;;;;;;;12.43;82.18;99733.25;638964;224;24897;-82
2021/05/21 04:32:33;;;;;;;1.50;1.40;;;;;;;12.35;83.02;99731.15;638624;224;24884;-81
2021/05/21 04:35:01;;;;;;;3.37;1.40;;;;;;;12.38;81.88;99726.40;638074;224;23909;-80
2021/05/21 04:37:30;;;;;;;3.17;1.70;;;;;;;12.61;80.94;99725.17;632292;224;32829;-82
2021/05/21 04:39:58;;;;;;;2.83;1.70;;;;;;;12.41;82.14;99728.70;611039;234;26960;-81
2021/05/21 04:42:26;;;;;;;1.40;1.30;;;;;;;12.37;82.16;99731.30;636339;224;25177;-81
2021/05/21 04:44:54;;;;;;;3.60;1.60;;;;;;;12.85;81.06;99721.64;632873;220;32690;-81
2021/05/21 04:47:22;;;;;;;2.00;1.40;;;;;;;12.57;82.12;99726.51;639497;223;24007;-80
2021/05/21 04:49:50;;;;;;;3.60;1.43;;;;;;;12.57;81.75;99712.16;638662;224;24916;-82
2021/05/21 04:52:18;;;;;;;2.17;1.20;;;;;;;12.54;81.70;99726.05;639594;224;24906;-80
2021/05/21 04:54:46;;;;;;;3.63;1.43;;;;;;;12.45;82.10;99717.42;634252;221;24865;-81
2021/05/21 04:57:14;;;;;;;2.73;1.50;;;;;;;12.71;82.54;99715.84;638194;221;24866;-81
2021/05/21 04:59:42;;;;;;;1.43;1.30;;;;;;;12.54;82.85;99713.00;641029;224;24864;-80
2021/05/21 05:02:10;;;;;;;3.73;1.50;;;;;;;12.60;81.44;99704.48;639861;223;24917;-80
2021/05/21 05:04:38;;;;;;;1.83;1.63;;;;;;;12.69;81.31;99699.06;639081;224;24955;-81
2021/05/21 05:07:06;;;;;;;6.63;1.23;;;;;;;12.86;81.82;99698.47;637506;224;24885;-80
2021/05/21 05:09:34;;;;;;;2.60;1.57;;;;;;;12.83;81.90;99696.21;636995;221;24922;-81
2021/05/21 05:12:02;;;;;;;1.40;1.30;;;;;;;12.64;81.08;99696.63;638746;224;25029;-81
2021/05/21 05:14:30;;;;;;;3.33;1.33;;;;;;;12.68;82.01;99693.52;640591;220;24097;-82
2021/05/21 05:16:58;;;;;;;4.03;1.30;;;;;;;12.68;81.89;99692.22;638457;224;24945;-80
2021/05/21 05:19:26;;;;;;;2.03;1.50;;;;;;;12.68;82.27;99693.52;627980;224;24855;-81
2021/05/21 05:21:54;;;;;;;3.03;1.50;;;;;;;12.91;81.11;99688.31;638611;224;24845;-81
2021/05/21 05:24:22;;;;;;;2.13;1.50;;;;;;;12.83;81.55;99684.47;640325;220;26369;-81
2021/05/21 05:26:50;;;;;;;1.60;1.37;;;;;;;12.78;81.19;99671.10;639157;224;24851;-82
2021/05/21 05:29:18;;;;;;;2.33;1.43;;;;;;;12.73;82.24;99669.02;640359;224;24857;-80
2021/05/21 05:31:46;;;;;;;4.50;1.27;;;;;;;12.74;81.91;99676.36;632690;224;24944;-82
2021/05/21 05:34:14;;;;;;;2.97;1.43;;;;;;;12.91;81.40;99674.45;638762;224;24839;-82
2021/05/21 05:36:42;;;;;;;1.43;1.30;;;;;;;12.91;80.51;99659.59;637782;223;24845;-82
2021/05/21 05:39:10;;;;;;;1.60;1.50;;;;;;;12.94;80.80;99659.73;639200;222;24870;-80
2021/05/21 05:41:38;;;;;;;3.23;1.50;;;;;;;13.04;81.12;99662.94;638026;224;24902;-81
2021/05/21 05:44:06;;;;;;;4.33;1.40;;;;;;;13.14;80.75;99650.47;639723;223;24953;-81
2021/05/21 05:46:34;;;;;;;4.80;1.40;;;;;;;13.21;79.80;99650.09;638625;221;24863;-81
2021/05/21 05:49:03;;;;;;;4.07;1.37;;;;;;;13.34;80.02;99650.81;638215;224;23923;-81
2021/05/21 05:51:30;;;;;;;1.23;1.13;;;;;;;13.54;79.25;99635.45;638549;224;23846;-81
2021/05/21 05:53:58;;;;;;;3.33;1.50;;;;;;;13.44;79.35;99644.03;609537;234;24939;-81
2021/05/21 05:56:26;;;;;;;1.30;1.20;;;;;;;13.21;79.74;99645.38;622584;227;24881;-80
2021/05/21 05:58:54;;;;;;;1.47;1.30;;;;;;;13.33;79.95;99645.27;612495;232;23989;-81
2021/05/21 06:01:22;;;;;;;2.50;1.10;;;;;;;13.76;78.12;99641.09;634646;223;34053;-81
2021/05/21 06:03:50;;;;;;;2.22;1.50;;;;;;;13.94;77.37;99638.14;634837;224;32697;-81
2021/05/21 06:06:18;;;;;;;2.00;1.23;;;;;;;13.88;77.79;99629.70;638847;220;23746;-81
2021/05/21 06:08:46;;;;;;;1.57;1.00;;;;;;;13.64;78.06;99628.95;608179;233;28170;-81
2021/05/21 06:11:14;;;;;;;1.50;1.13;;;;;;;13.81;77.26;99627.01;640883;223;24923;-81
2021/05/21 06:13:42;;;;;;;1.90;1.40;;;;;;;13.76;78.04;99628.52;640496;224;23865;-81
2021/05/21 06:16:10;;;;;;;3.87;1.30;;;;;;;14.08;76.43;99616.89;633845;220;32819;-80
2021/05/21 06:18:40;;;;;;;1.43;1.33;;;;;;;14.03;76.75;99609.58;638539;224;23747;-80
2021/05/21 06:21:06;;;;;;;2.50;0.90;;;;;;;14.05;75.54;99602.86;623129;229;25326;-81
2021/05/21 06:23:34;;;;;;;4.47;1.20;;;;;;;14.24;75.26;99610.95;640855;224;28028;-81
2021/05/21 06:26:13;;;;;;;2.43;0.90;;;;;;;14.01;75.66;99608.14;612872;234;24967;-81
2021/05/21 06:28:40;;;;;;;1.20;1.10;;;;;;;14.19;75.75;99615.09;626296;228;24909;-81
2021/05/21 06:31:06;;;;;;;2.40;1.00;;;;;;;14.12;76.61;99624.69;637829;224;24859;-81
2021/05/21 06:33:34;;;;;;;2.20;1.10;;;;;;;14.24;76.46;99624.03;638881;224;25016;-80
2021/05/21 06:36:02;;;;;;;1.13;1.00;;;;;;;14.01;76.12;99618.60;612886;234;23958;-81
2021/05/21 06:38:30;;;;;;;1.70;1.20;;;;;;;14.03;77.55;99625.27;638278;224;24899;-81
2021/05/21 06:40:59;;;;;;;1.00;1.00;;;;;;;14.00;77.34;99617.80;637388;224;23872;-79
2021/05/21 06:43:27;;;;;;;2.20;1.30;;;;;;;14.14;76.93;99620.89;638561;224;24898;-80
2021/05/21 06:45:55;;;;;;;3.53;1.23;;;;;;;14.15;76.70;99613.85;639369;224;24068;-81
2021/05/21 06:48:28;;;;;;;5.00;1.50;;;;;;;14.32;77.02;99611.33;637844;224;24878;-81
2021/05/21 06:50:52;;;;;;;1.50;1.10;;;;;;;14.35;75.92;99608.84;640221;224;24905;-82
2021/05/21 06:53:22;;;;;;;1.50;1.13;;;;;;;14.63;75.03;99597.19;639433;224;24857;-81
2021/05/21 06:55:48;;;;;;;1.90;1.20;;;;;;;14.61;73.38;99596.07;612743;232;26057;-82
2021/05/21 06:58:18;;;;;;;5.00;1.20;;;;;;;14.66;73.50;99594.22;611385;234;24001;-80
2021/05/21 07:00:44;;;;;;;1.40;1.10;;;;;;;14.88;72.89;99588.47;606333;234;33123;-80
2021/05/21 07:03:12;;;;;;;1.53;1.20;;;;;;;14.45;74.27;99598.42;638051;223;27041;-82
2021/05/21 07:05:41;;;;;;;4.80;1.40;;;;;;;14.46;75.14;99607.09;641175;220;23882;-82
2021/05/21 07:08:08;;;;;;;1.33;1.10;;;;;;;14.34;75.06;99611.14;639784;224;23867;-82
2021/05/21 07:10:36;;;;;;;2.10;1.40;;;;;;;14.28;75.23;99622.36;639640;223;24852;-81
2021/05/21 07:13:09;;;;;;;2.50;1.37;;;;;;;14.34;76.50;99630.27;640198;224;23878;-81
2021/05/21 07:15:37;;;;;;;3.00;0.97;;;;;;;14.32;75.75;99630.14;639976;220;24885;-80
2021/05/21 07:18:05;;;;;;;2.97;1.90;;;;;;;14.27;75.23;99634.63;639368;224;23882;-81
2021/05/21 07:20:33;;;;;;;3.67;1.23;;;;;;;14.29;75.09;99638.36;641282;224;23871;-80
2021/05/21 07:23:01;;;;;;;2.37;1.30;;;;;;;14.34;74.31;99631.58;639897;224;24865;-80
2021/05/21 07:25:30;;;;;;;1.63;1.50;;;;;;;14.33;74.00;99629.14;639890;221;24851;-79
2021/05/21 07:27:58;;;;;;;2.43;1.33;;;;;;;14.42;75.02;99624.12;639472;224;23861;-81
2021/05/21 07:30:26;;;;;;;3.70;1.43;;;;;;;14.50;74.11;99624.06;637516;224;24884;-81
2021/05/21 07:32:54;;;;;;;3.80;1.27;;;;;;;14.54;74.10;99622.69;638489;224;24847;-81
2021/05/21 07:35:23;;;;;;;3.30;1.20;;;;;;;14.64;74.03;99620.59;638174;223;24494;-81
2021/05/21 07:37:50;;;;;;;1.77;1.10;;;;;;;14.59;74.25;99622.92;638593;224;27397;-82
2021/05/21 07:40:18;;;;;;;1.37;1.00;;;;;;;14.69;74.17;99616.90;637807;224;24881;-79
2021/05/21 07:42:46;;;;;;;3.43;1.10;;;;;;;14.74;73.74;99618.95;632989;224;24906;-81
2021/05/21 07:45:14;;;;;;;1.67;1.07;;;;;;;14.77;73.35;99612.02;640516;220;23852;-81
2021/05/21 07:47:42;;;;;;;2.00;1.00;;;;;;;14.97;72.51;99610.41;637690;224;24909;-81
2021/05/21 07:50:12;;;;;;;1.23;1.07;;;;;;;15.09;72.92;99604.17;638508;223;27029;-82
2021/05/21 07:52:40;;;;;;;3.03;1.50;;;;;;;14.97;72.54;99605.67;637614;224;23880;-82
2021/05/21 07:55:08;;;;;;;1.97;1.50;;;;;;;15.24;72.24;99603.58;638660;220;23888;-80
2021/05/21 07:57:36;;;;;;;2.50;1.10;;;;;;;15.20;71.94;99602.35;637554;224;23873;-81
2021/05/21 08:00:05;;;;;;;2.27;1.17;;;;;;;14.98;71.66;99596.82;637462;225;24155;-82
2021/05/21 08:02:33;;;;;;;2.57;1.27;;;;;;;14.98;71.79;99609.91;607233;234;35975;-81
2021/05/21 08:05:01;;;;;;;2.60;1.10;;;;;;;14.98;72.25;99605.98;639538;221;23901;-82
2021/05/21 08:07:29;;;;;;;1.27;1.00;;;;;;;14.98;71.83;99603.37;626416;228;23920;-82
2021/05/21 08:09:57;;;;;;;4.13;1.07;;;;;;;14.91;72.29;99597.25;637251;224;23914;-82
2021/05/21 08:12:25;;;;;;;2.40;0.90;;;;;;;15.13;71.96;99583.14;638518;224;24858;-81
2021/05/21 08:14:54;;;;;;;4.57;1.20;;;;;;;15.44;69.34;99570.45;638383;224;23886;-79
2021/05/21 08:17:22;;;;;;;3.13;1.20;;;;;;;15.35;70.29;99565.57;640121;224;24868;-81
2021/05/21 08:19:50;;;;;;;3.20;1.10;;;;;;;15.26;69.41;99547.87;636774;224;24851;-80
2021/05/21 08:22:17;;;;;;;2.07;1.27;;;;;;;15.30;69.15;99551.72;640633;223;23907;-81
2021/05/21 08:24:45;;;;;;;1.00;0.90;;;;;;;15.41;69.36;99536.77;642067;223;24884;-80
2021/05/21 08:27:13;;;;;;;4.00;1.23;;;;;;;15.36;67.53;99533.12;643493;223;24923;-79
2021/05/21 08:29:41;;;;;;;2.60;1.23;;;;;;;15.45;68.17;99533.26;628061;228;29626;-81
2021/05/21 08:32:09;;;;;;;1.20;1.00;;;;;;;15.44;69.20;99540.31;640386;223;23862;-81
2021/05/21 08:34:37;;;;;;;9.47;1.37;;;;;;;15.44;68.84;99532.45;639753;220;24874;-82
2021/05/21 08:37:05;;;;;;;5.77;1.13;;;;;;;15.56;68.68;99529.29;641373;224;24896;-82
2021/05/21 08:39:34;;;;;;;6.20;1.50;;;;;;;15.56;69.21;99529.29;638605;224;23883;-81
2021/05/21 08:42:01;;;;;;;1.43;0.90;;;;;;;15.47;68.56;99518.65;640294;224;23896;-81
2021/05/21 08:44:29;;;;;;;1.77;1.00;;;;;;;15.41;68.95;99521.05;637683;222;25565;-81
2021/05/21 08:46:59;;;;;;;1.73;1.00;;;;;;;15.49;67.25;99521.91;638741;224;24244;-81
2021/05/21 08:49:27;;;;;;;2.20;1.20;;;;;;;15.51;68.17;99526.45;638577;224;24872;-80
2021/05/21 08:51:57;;;;;;;1.30;1.00;;;;;;;15.38;68.61;99525.38;637356;224;26101;-81
2021/05/21 08:54:23;;;;;;;1.70;0.90;;;;;;;15.69;68.64;99543.80;636888;224;24859;-80
2021/05/21 08:56:51;;;;;;;4.53;1.47;;;;;;;15.71;67.69;99539.17;637373;224;23864;-81
2021/05/21 08:59:19;;;;;;;2.73;0.97;;;;;;;15.91;66.64;99553.19;638662;224;24858;-81
2021/05/21 09:01:53;;;;;;;1.70;1.03;;;;;;;15.88;64.56;99540.45;638759;224;23875;-80
2021/05/21 09:04:21;;;;;;;2.60;1.07;;;;;;;15.93;64.20;99536.75;638612;221;23920;-81
2021/05/21 09:06:49;;;;;;;3.17;1.17;;;;;;;15.89;65.15;99552.55;639096;224;24160;-81
2021/05/21 09:09:17;;;;;;;2.33;0.90;;;;;;;15.95;64.63;99554.41;638630;224;24865;-81
2021/05/21 09:11:46;;;;;;;5.50;0.80;;;;;;;15.91;63.94;99544.02;636612;224;23895;-79
2021/05/21 09:14:14;;;;;;;7.60;1.13;;;;;;;16.01;65.61;99547.56;638612;224;24850;-82
2021/05/21 09:16:41;;;;;;;1.20;0.90;;;;;;;16.12;65.12;99565.86;638902;221;28027;-82
2021/05/21 09:19:11;;;;;;;1.87;0.60;;;;;;;16.09;63.21;99550.02;638278;224;23910;-80
2021/05/21 09:21:50;;;;;;;3.17;1.00;;;;;;;16.11;64.84;99566.87;639156;224;31326;-81
2021/05/21 09:24:18;;;;;;;1.70;0.90;;;;;;;15.98;63.54;99553.20;640570;224;23890;-82
2021/05/21 09:26:46;;;;;;;1.27;0.97;;;;;;;15.94;63.77;99563.79;635470;224;23902;-81
2021/05/21 09:29:14;;;;;;;4.10;0.87;;;;;;;16.02;63.66;99567.53;639688;224;27063;-81
2021/05/21 09:31:43;;;;;;;5.47;0.80;;;;;;;16.15;62.87;99551.03;637064;224;23920;-83
2021/05/21 09:34:11;;;;;;;3.43;1.17;;;;;;;16.19;63.28;99549.66;639471;223;24839;-81
2021/05/21 09:36:39;;;;;;;5.60;1.20;;;;;;;16.18;63.17;99556.69;638889;224;23962;-82
2021/05/21 09:39:08;;;;;;;1.03;0.90;;;;;;;16.17;63.17;99562.14;638375;224;24906;-81
2021/05/21 09:41:46;;;;;;;4.30;1.00;;;;;;;16.27;62.85;99559.95;638631;223;25523;-82
2021/05/21 09:44:13;;;;;;;7.33;1.45;;;;;;;16.51;63.86;99563.34;633651;224;33108;-81
2021/05/21 09:46:41;;;;;;;2.37;1.10;;;;;;;16.50;62.04;99561.73;639824;224;23060;-82
2021/05/21 09:49:26;;;;;;;1.43;1.00;;;;;;;16.44;62.13;99549.89;640097;223;23887;-81
2021/05/21 09:51:54;;;;;;;3.80;1.10;;;;;;;16.25;62.00;99560.66;638192;224;24910;-81
2021/05/21 09:54:22;;;;;;;4.03;1.10;;;;;;;16.37;61.82;99566.14;637557;224;24866;-81
2021/05/21 09:57:00;;;;;;;1.40;1.10;;;;;;;16.39;61.69;99572.81;637382;224;25979;-81
2021/05/21 09:59:39;;;;;;;1.93;1.07;;;;;;;16.57;62.55;99570.91;639358;224;23966;-81
2021/05/21 10:02:19;;;;;;;5.30;1.00;;;;;;;16.44;63.44;99575.63;640619;224;23883;-81
2021/05/21 10:04:46;;;;;;;6.07;1.13;;;;;;;16.42;62.53;99576.34;635036;224;24897;-79
2021/05/21 10:07:14;;;;;;;3.70;1.73;;;;;;;16.49;62.83;99579.80;639555;224;23872;-78
2021/05/21 10:09:43;;;;;;;3.07;1.20;;;;;;;16.26;62.92;99579.33;616116;233;23972;-77
2021/05/21 10:12:11;;;;;;;3.80;0.90;;;;;;;16.36;63.17;99588.15;609347;234;24943;-77
2021/05/21 10:14:39;;;;;;;4.30;1.20;;;;;;;16.43;63.42;99588.96;611357;230;23968;-79
2021/05/21 10:17:08;;;;;;;2.00;0.90;;;;;;;16.39;62.87;99571.49;613390;234;23954;-79
2021/05/21 10:19:35;;;;;;;2.20;0.97;;;;;;;16.56;62.68;99581.92;639608;224;27007;-78
2021/05/21 10:22:07;;;;;;;3.08;0.90;;;;;;;16.74;62.45;99573.48;631832;224;42974;-79
2021/05/21 10:24:32;;;;;;;4.72;1.00;;;;;;;17.01;62.31;99569.56;632365;224;32658;-79
2021/05/21 10:27:00;;;;;;;4.93;1.07;;;;;;;17.28;61.68;99575.61;638520;224;22749;-80
2021/05/21 10:29:28;;;;;;;2.10;1.07;;;;;;;17.39;62.53;99569.73;638064;224;23901;-81
2021/05/21 10:32:09;;;;;;;1.77;1.00;;;;;;;16.95;62.44;99573.81;639936;224;26027;-81
2021/05/21 10:34:41;;;;;;;3.57;0.90;;;;;;;17.14;61.55;99574.81;638054;220;23923;-79
2021/05/21 10:37:18;;;;;;;1.13;0.90;;;;;;;16.73;62.90;99580.25;640336;224;31495;-80
2021/05/21 10:40:00;;;;;;;1.90;1.03;;;;;;;16.87;62.90;99588.45;634938;224;23873;-80
2021/05/21 10:42:29;;;;;;;2.60;0.87;;;;;;;16.68;63.58;99579.55;638660;224;27044;-79
2021/05/21 10:45:07;;;;;;;2.40;0.93;;;;;;;16.66;63.99;99591.23;613633;230;24972;-80
2021/05/21 10:47:37;;;;;;;2.07;1.20;;;;;;;16.75;62.89;99588.73;644756;223;23861;-79
2021/05/21 10:50:08;;;;;;;2.93;1.10;;;;;;;16.77;63.84;99588.06;608844;233;24949;-79
2021/05/21 10:52:47;;;;;;;3.77;1.03;;;;;;;16.85;63.65;99586.53;638799;224;24972;-81
2021/05/21 10:55:14;;;;;;;4.23;1.00;;;;;;;16.93;63.88;99602.11;638632;224;23963;-80
2021/05/21 10:57:42;;;;;;;2.50;0.90;;;;;;;17.50;61.85;99592.27;633023;223;32733;-81
2021/05/21 11:00:11;;;;;;;1.70;0.97;;;;;;;17.55;62.41;99571.11;638857;224;23751;-80
2021/05/21 11:02:53;;;;;;;4.17;1.17;;;;;;;17.46;62.08;99571.86;637862;224;24883;-79
2021/05/21 11:05:22;;;;;;;2.90;1.27;;;;;;;17.52;62.37;99572.34;640294;220;23887;-81
2021/05/21 11:07:54;;;;;;;3.07;1.30;;;;;;;17.83;61.70;99572.17;638021;224;23885;-80
2021/05/21 11:10:28;;;;;;;8.20;1.50;;;;;;;17.45;63.11;99573.68;638710;224;23928;-81
2021/05/21 11:12:59;;;;;;;6.17;1.30;;;;;;;17.34;62.81;99570.86;637744;224;23936;-80
2021/05/21 11:15:35;;;;;;;2.67;1.22;;;;;;;17.27;62.97;99568.73;631659;224;32831;-80
2021/05/21 11:18:13;;;;;;;4.17;1.60;;;;;;;17.77;63.13;99581.20;638358;224;22766;-80
2021/05/21 11:20:53;;;;;;;1.93;1.17;;;;;;;17.48;63.15;99581.66;637528;224;24918;-81
2021/05/21 11:23:24;;;;;;;2.20;0.90;;;;;;;17.42;64.09;99578.52;637650;224;24858;-80
2021/05/21 11:26:02;;;;;;;2.60;1.20;;;;;;;17.67;63.46;99586.05;638656;224;24861;-80
2021/05/21 11:28:30;;;;;;;3.80;1.00;;;;;;;17.62;62.47;99592.95;640061;224;23900;-80
2021/05/21 11:30:58;;;;;;;2.80;1.13;;;;;;;17.29;64.15;99603.50;636696;224;23958;-80
2021/05/21 11:33:26;;;;;;;4.03;1.17;;;;;;;17.04;64.14;99611.22;638794;224;23891;-80
2021/05/21 11:35:55;;;;;;;3.40;1.43;;;;;;;16.82;64.75;99618.46;637000;225;23919;-78
2021/05/21 11:38:25;;;;;;;2.60;1.13;;;;;;;16.81;64.48;99595.83;637082;224;23893;-79